sensor_id;sensor_type;location;lat;lon;timestamp;P1;P2;P0
73565;PMS5003;61846;52.970;-3.168;2023-07-08T00:01:59;9;9;
73565;PMS5003;61846;52.970;-3.168;2023-07-08T00:04:24;11;11;
73565;PMS5003;61846;52.970;-3.168;2023-07-08T00:06:50;15;12;
73565;PMS5003;61846;52.970;-3.168;2023-07-08T00:09:15;9;8;
73565;PMS5003;61846;52.970;-3.168;2023-07-08T00:11:41;13;11;
73565;PMS5003;61846;52.970;-3.168;2023-07-08T00:14:06;11;11;
73565;PMS5003;61846;52.970;-3.168;2023-07-08T00:16:31;11;11;
73565;PMS5003;61846;52.970;-3.168;2023-07-08T00:18:57;15;11;
73565;PMS5003;61846;52.970;-3.168;2023-07-08T00:21:22;9;9;
73565;PMS5003;61846;52.970;-3.168;2023-07-08T00:23:48;17;11;
73565;PMS5003;61846;52.970;-3.168;2023-07-08T00:26:15;12;12;
73565;PMS5003;61846;52.970;-3.168;2023-07-08T00:28:38;11;10;
73565;PMS5003;61846;52.970;-3.168;2023-07-08T00:31:04;11;9;
73565;PMS5003;61846;52.970;-3.168;2023-07-08T00:33:29;12;11;
73565;PMS5003;61846;52.970;-3.168;2023-07-08T00:35:54;9;9;
73565;PMS5003;61846;52.970;-3.168;2023-07-08T00:38:22;15;11;
73565;PMS5003;61846;52.970;-3.168;2023-07-08T00:40:49;19;9;
73565;PMS5003;61846;52.970;-3.168;2023-07-08T00:43:11;16;14;
73565;PMS5003;61846;52.970;-3.168;2023-07-08T00:45:37;12;10;
73565;PMS5003;61846;52.970;-3.168;2023-07-08T00:48:03;12;10;
73565;PMS5003;61846;52.970;-3.168;2023-07-08T00:50:26;12;8;
73565;PMS5003;61846;52.970;-3.168;2023-07-08T00:55:17;11;10;
73565;PMS5003;61846;52.970;-3.168;2023-07-08T00:57:42;13;12;
73565;PMS5003;61846;52.970;-3.168;2023-07-08T01:00:09;12;10;
73565;PMS5003;61846;52.970;-3.168;2023-07-08T01:02:33;13;12;
73565;PMS5003;61846;52.970;-3.168;2023-07-08T01:05:00;10;10;
73565;PMS5003;61846;52.970;-3.168;2023-07-08T01:07:24;13;10;
73565;PMS5003;61846;52.970;-3.168;2023-07-08T01:09:50;14;13;
73565;PMS5003;61846;52.970;-3.168;2023-07-08T01:12:16;16;11;
73565;PMS5003;61846;52.970;-3.168;2023-07-08T01:14:40;15;9;
73565;PMS5003;61846;52.970;-3.168;2023-07-08T01:17:05;12;12;
73565;PMS5003;61846;52.970;-3.168;2023-07-08T01:19:31;15;10;
73565;PMS5003;61846;52.970;-3.168;2023-07-08T01:21:58;10;10;
73565;PMS5003;61846;52.970;-3.168;2023-07-08T01:24:22;11;10;
73565;PMS5003;61846;52.970;-3.168;2023-07-08T01:26:47;9;9;
73565;PMS5003;61846;52.970;-3.168;2023-07-08T01:29:12;14;9;
73565;PMS5003;61846;52.970;-3.168;2023-07-08T01:31:38;20;13;
73565;PMS5003;61846;52.970;-3.168;2023-07-08T01:34:04;14;12;
73565;PMS5003;61846;52.970;-3.168;2023-07-08T01:36:30;11;10;
73565;PMS5003;61846;52.970;-3.168;2023-07-08T01:38:54;17;13;
73565;PMS5003;61846;52.970;-3.168;2023-07-08T01:41:20;13;13;
73565;PMS5003;61846;52.970;-3.168;2023-07-08T01:43:45;13;11;
73565;PMS5003;61846;52.970;-3.168;2023-07-08T01:46:11;12;12;
73565;PMS5003;61846;52.970;-3.168;2023-07-08T01:48:36;15;14;
73565;PMS5003;61846;52.970;-3.168;2023-07-08T01:51:02;13;11;
73565;PMS5003;61846;52.970;-3.168;2023-07-08T01:53:28;12;12;
73565;PMS5003;61846;52.970;-3.168;2023-07-08T01:55:50;13;13;
73565;PMS5003;61846;52.970;-3.168;2023-07-08T01:58:16;13;13;
73565;PMS5003;61846;52.970;-3.168;2023-07-08T02:00:41;18;18;
73565;PMS5003;61846;52.970;-3.168;2023-07-08T02:03:06;12;11;
73565;PMS5003;61846;52.970;-3.168;2023-07-08T02:05:32;18;16;
73565;PMS5003;61846;52.970;-3.168;2023-07-08T02:07:58;16;14;
73565;PMS5003;61846;52.970;-3.168;2023-07-08T02:10:23;15;15;
73565;PMS5003;61846;52.970;-3.168;2023-07-08T02:12:49;14;12;
73565;PMS5003;61846;52.970;-3.168;2023-07-08T02:15:14;11;11;
73565;PMS5003;61846;52.970;-3.168;2023-07-08T02:17:40;21;12;
73565;PMS5003;61846;52.970;-3.168;2023-07-08T02:20:05;13;13;
73565;PMS5003;61846;52.970;-3.168;2023-07-08T02:22:31;13;13;
73565;PMS5003;61846;52.970;-3.168;2023-07-08T02:24:56;17;15;
73565;PMS5003;61846;52.970;-3.168;2023-07-08T02:27:21;16;15;
73565;PMS5003;61846;52.970;-3.168;2023-07-08T02:29:46;15;13;
73565;PMS5003;61846;52.970;-3.168;2023-07-08T02:32:12;14;14;
73565;PMS5003;61846;52.970;-3.168;2023-07-08T02:34:38;23;17;
73565;PMS5003;61846;52.970;-3.168;2023-07-08T02:37:03;13;12;
73565;PMS5003;61846;52.970;-3.168;2023-07-08T02:39:28;21;18;
73565;PMS5003;61846;52.970;-3.168;2023-07-08T02:41:54;14;14;
73565;PMS5003;61846;52.970;-3.168;2023-07-08T02:44:19;17;15;
73565;PMS5003;61846;52.970;-3.168;2023-07-08T02:46:44;14;12;
73565;PMS5003;61846;52.970;-3.168;2023-07-08T02:49:09;15;15;
73565;PMS5003;61846;52.970;-3.168;2023-07-08T02:51:35;13;13;
73565;PMS5003;61846;52.970;-3.168;2023-07-08T02:54:00;15;14;
73565;PMS5003;61846;52.970;-3.168;2023-07-08T02:56:26;22;14;
73565;PMS5003;61846;52.970;-3.168;2023-07-08T02:58:51;16;14;
73565;PMS5003;61846;52.970;-3.168;2023-07-08T03:01:16;19;16;
73565;PMS5003;61846;52.970;-3.168;2023-07-08T03:03:41;17;14;
73565;PMS5003;61846;52.970;-3.168;2023-07-08T03:06:08;13;13;
73565;PMS5003;61846;52.970;-3.168;2023-07-08T03:08:32;15;12;
73565;PMS5003;61846;52.970;-3.168;2023-07-08T03:10:58;16;16;
73565;PMS5003;61846;52.970;-3.168;2023-07-08T03:13:23;18;13;
73565;PMS5003;61846;52.970;-3.168;2023-07-08T03:15:49;19;18;
73565;PMS5003;61846;52.970;-3.168;2023-07-08T03:18:14;21;14;
73565;PMS5003;61846;52.970;-3.168;2023-07-08T03:20:39;24;17;
73565;PMS5003;61846;52.970;-3.168;2023-07-08T03:23:05;20;17;
73565;PMS5003;61846;52.970;-3.168;2023-07-08T03:25:29;17;17;
73565;PMS5003;61846;52.970;-3.168;2023-07-08T03:27:55;17;15;
73565;PMS5003;61846;52.970;-3.168;2023-07-08T03:30:20;16;15;
73565;PMS5003;61846;52.970;-3.168;2023-07-08T03:32:45;19;16;
73565;PMS5003;61846;52.970;-3.168;2023-07-08T03:35:11;24;16;
73565;PMS5003;61846;52.970;-3.168;2023-07-08T03:37:35;19;16;
73565;PMS5003;61846;52.970;-3.168;2023-07-08T03:40:01;15;15;
73565;PMS5003;61846;52.970;-3.168;2023-07-08T03:42:26;28;20;
73565;PMS5003;61846;52.970;-3.168;2023-07-08T03:44:52;18;16;
73565;PMS5003;61846;52.970;-3.168;2023-07-08T03:47:17;17;16;
73565;PMS5003;61846;52.970;-3.168;2023-07-08T03:49:43;14;14;
73565;PMS5003;61846;52.970;-3.168;2023-07-08T03:52:09;23;18;
73565;PMS5003;61846;52.970;-3.168;2023-07-08T03:54:34;17;15;
73565;PMS5003;61846;52.970;-3.168;2023-07-08T03:56:59;14;12;
73565;PMS5003;61846;52.970;-3.168;2023-07-08T03:59:24;16;13;
73565;PMS5003;61846;52.970;-3.168;2023-07-08T04:01:49;15;15;
73565;PMS5003;61846;52.970;-3.168;2023-07-08T04:04:15;17;14;
73565;PMS5003;61846;52.970;-3.168;2023-07-08T04:06:40;17;15;
73565;PMS5003;61846;52.970;-3.168;2023-07-08T04:09:05;17;13;
73565;PMS5003;61846;52.970;-3.168;2023-07-08T04:11:31;14;11;
73565;PMS5003;61846;52.970;-3.168;2023-07-08T04:13:56;14;12;
73565;PMS5003;61846;52.970;-3.168;2023-07-08T04:16:23;19;15;
73565;PMS5003;61846;52.970;-3.168;2023-07-08T04:18:47;16;16;
73565;PMS5003;61846;52.970;-3.168;2023-07-08T04:21:12;16;15;
73565;PMS5003;61846;52.970;-3.168;2023-07-08T04:23:38;16;15;
73565;PMS5003;61846;52.970;-3.168;2023-07-08T04:26:03;15;13;
73565;PMS5003;61846;52.970;-3.168;2023-07-08T04:28:28;15;12;
73565;PMS5003;61846;52.970;-3.168;2023-07-08T04:30:54;17;13;
73565;PMS5003;61846;52.970;-3.168;2023-07-08T04:33:19;19;12;
73565;PMS5003;61846;52.970;-3.168;2023-07-08T04:35:45;13;13;
73565;PMS5003;61846;52.970;-3.168;2023-07-08T04:38:11;12;12;
73565;PMS5003;61846;52.970;-3.168;2023-07-08T04:40:36;16;14;
73565;PMS5003;61846;52.970;-3.168;2023-07-08T04:43:01;13;12;
73565;PMS5003;61846;52.970;-3.168;2023-07-08T04:45:26;11;10;
73565;PMS5003;61846;52.970;-3.168;2023-07-08T04:47:52;17;14;
73565;PMS5003;61846;52.970;-3.168;2023-07-08T04:50:17;16;13;
73565;PMS5003;61846;52.970;-3.168;2023-07-08T04:52:42;17;11;
73565;PMS5003;61846;52.970;-3.168;2023-07-08T04:55:08;13;13;
73565;PMS5003;61846;52.970;-3.168;2023-07-08T04:57:33;16;14;
73565;PMS5003;61846;52.970;-3.168;2023-07-08T04:59:58;11;11;
73565;PMS5003;61846;52.970;-3.168;2023-07-08T05:02:23;13;11;
73565;PMS5003;61846;52.970;-3.168;2023-07-08T05:04:49;19;14;
73565;PMS5003;61846;52.970;-3.168;2023-07-08T05:07:14;20;13;
73565;PMS5003;61846;52.970;-3.168;2023-07-08T05:09:40;15;14;
73565;PMS5003;61846;52.970;-3.168;2023-07-08T05:12:06;19;13;
73565;PMS5003;61846;52.970;-3.168;2023-07-08T05:14:31;19;11;
73565;PMS5003;61846;52.970;-3.168;2023-07-08T05:16:56;11;11;
73565;PMS5003;61846;52.970;-3.168;2023-07-08T05:19:22;17;14;
73565;PMS5003;61846;52.970;-3.168;2023-07-08T05:21:48;21;14;
73565;PMS5003;61846;52.970;-3.168;2023-07-08T05:24:13;13;12;
73565;PMS5003;61846;52.970;-3.168;2023-07-08T05:26:38;10;10;
73565;PMS5003;61846;52.970;-3.168;2023-07-08T05:29:03;9;8;
73565;PMS5003;61846;52.970;-3.168;2023-07-08T05:31:29;20;13;
73565;PMS5003;61846;52.970;-3.168;2023-07-08T05:33:54;13;11;
73565;PMS5003;61846;52.970;-3.168;2023-07-08T05:36:20;15;13;
73565;PMS5003;61846;52.970;-3.168;2023-07-08T05:38:45;13;12;
73565;PMS5003;61846;52.970;-3.168;2023-07-08T05:41:10;17;12;
73565;PMS5003;61846;52.970;-3.168;2023-07-08T05:43:36;15;13;
73565;PMS5003;61846;52.970;-3.168;2023-07-08T05:46:01;10;10;
73565;PMS5003;61846;52.970;-3.168;2023-07-08T05:48:27;12;12;
73565;PMS5003;61846;52.970;-3.168;2023-07-08T05:50:52;12;12;
73565;PMS5003;61846;52.970;-3.168;2023-07-08T05:53:18;13;11;
73565;PMS5003;61846;52.970;-3.168;2023-07-08T05:55:43;13;12;
73565;PMS5003;61846;52.970;-3.168;2023-07-08T05:58:08;11;11;
73565;PMS5003;61846;52.970;-3.168;2023-07-08T06:00:33;15;12;
73565;PMS5003;61846;52.970;-3.168;2023-07-08T06:02:58;13;12;
73565;PMS5003;61846;52.970;-3.168;2023-07-08T06:05:24;10;10;
73565;PMS5003;61846;52.970;-3.168;2023-07-08T06:07:49;17;16;
73565;PMS5003;61846;52.970;-3.168;2023-07-08T06:10:14;14;13;
73565;PMS5003;61846;52.970;-3.168;2023-07-08T06:12:39;12;11;
73565;PMS5003;61846;52.970;-3.168;2023-07-08T06:15:06;17;14;
73565;PMS5003;61846;52.970;-3.168;2023-07-08T06:17:31;9;9;
73565;PMS5003;61846;52.970;-3.168;2023-07-08T06:19:56;11;11;
73565;PMS5003;61846;52.970;-3.168;2023-07-08T06:22:21;11;10;
73565;PMS5003;61846;52.970;-3.168;2023-07-08T06:24:47;14;12;
73565;PMS5003;61846;52.970;-3.168;2023-07-08T06:27:12;12;10;
73565;PMS5003;61846;52.970;-3.168;2023-07-08T06:29:37;12;12;
73565;PMS5003;61846;52.970;-3.168;2023-07-08T06:32:03;11;11;
73565;PMS5003;61846;52.970;-3.168;2023-07-08T06:34:28;13;13;
73565;PMS5003;61846;52.970;-3.168;2023-07-08T06:36:53;15;12;
73565;PMS5003;61846;52.970;-3.168;2023-07-08T06:39:19;20;11;
73565;PMS5003;61846;52.970;-3.168;2023-07-08T06:41:44;12;12;
73565;PMS5003;61846;52.970;-3.168;2023-07-08T06:44:10;17;14;
73565;PMS5003;61846;52.970;-3.168;2023-07-08T06:46:35;10;10;
73565;PMS5003;61846;52.970;-3.168;2023-07-08T06:49:00;12;12;
73565;PMS5003;61846;52.970;-3.168;2023-07-08T06:51:25;18;13;
73565;PMS5003;61846;52.970;-3.168;2023-07-08T06:53:50;11;11;
73565;PMS5003;61846;52.970;-3.168;2023-07-08T06:56:16;12;11;
73565;PMS5003;61846;52.970;-3.168;2023-07-08T06:58:41;18;12;
73565;PMS5003;61846;52.970;-3.168;2023-07-08T07:01:06;16;11;
73565;PMS5003;61846;52.970;-3.168;2023-07-08T07:03:32;15;13;
73565;PMS5003;61846;52.970;-3.168;2023-07-08T07:05:57;12;10;
73565;PMS5003;61846;52.970;-3.168;2023-07-08T07:08:23;18;14;
73565;PMS5003;61846;52.970;-3.168;2023-07-08T07:10:48;15;11;
73565;PMS5003;61846;52.970;-3.168;2023-07-08T07:13:13;13;11;
73565;PMS5003;61846;52.970;-3.168;2023-07-08T07:15:38;11;11;
73565;PMS5003;61846;52.970;-3.168;2023-07-08T07:18:03;10;10;
73565;PMS5003;61846;52.970;-3.168;2023-07-08T07:20:29;12;12;
73565;PMS5003;61846;52.970;-3.168;2023-07-08T07:22:54;14;13;
73565;PMS5003;61846;52.970;-3.168;2023-07-08T07:25:19;14;12;
73565;PMS5003;61846;52.970;-3.168;2023-07-08T07:27:44;10;9;
73565;PMS5003;61846;52.970;-3.168;2023-07-08T07:30:10;16;14;
73565;PMS5003;61846;52.970;-3.168;2023-07-08T07:32:35;13;12;
73565;PMS5003;61846;52.970;-3.168;2023-07-08T07:35:00;13;12;
73565;PMS5003;61846;52.970;-3.168;2023-07-08T07:37:25;9;9;
73565;PMS5003;61846;52.970;-3.168;2023-07-08T07:39:50;11;10;
73565;PMS5003;61846;52.970;-3.168;2023-07-08T07:42:16;16;14;
73565;PMS5003;61846;52.970;-3.168;2023-07-08T07:44:40;11;11;
73565;PMS5003;61846;52.970;-3.168;2023-07-08T07:47:06;9;9;
73565;PMS5003;61846;52.970;-3.168;2023-07-08T07:49:31;9;8;
73565;PMS5003;61846;52.970;-3.168;2023-07-08T07:51:57;12;11;
73565;PMS5003;61846;52.970;-3.168;2023-07-08T07:54:22;9;8;
73565;PMS5003;61846;52.970;-3.168;2023-07-08T07:56:47;9;9;
73565;PMS5003;61846;52.970;-3.168;2023-07-08T07:59:12;18;14;
73565;PMS5003;61846;52.970;-3.168;2023-07-08T08:01:38;8;8;
73565;PMS5003;61846;52.970;-3.168;2023-07-08T08:04:03;13;13;
73565;PMS5003;61846;52.970;-3.168;2023-07-08T08:06:29;25;13;
73565;PMS5003;61846;52.970;-3.168;2023-07-08T08:08:54;10;10;
73565;PMS5003;61846;52.970;-3.168;2023-07-08T08:11:20;13;10;
73565;PMS5003;61846;52.970;-3.168;2023-07-08T08:13:45;13;10;
73565;PMS5003;61846;52.970;-3.168;2023-07-08T08:16:11;13;11;
73565;PMS5003;61846;52.970;-3.168;2023-07-08T08:18:36;11;11;
73565;PMS5003;61846;52.970;-3.168;2023-07-08T08:21:01;12;10;
73565;PMS5003;61846;52.970;-3.168;2023-07-08T08:23:26;12;11;
73565;PMS5003;61846;52.970;-3.168;2023-07-08T08:25:51;12;12;
73565;PMS5003;61846;52.970;-3.168;2023-07-08T08:28:16;11;10;
73565;PMS5003;61846;52.970;-3.168;2023-07-08T08:30:42;11;11;
73565;PMS5003;61846;52.970;-3.168;2023-07-08T08:33:07;14;12;
73565;PMS5003;61846;52.970;-3.168;2023-07-08T08:35:32;10;10;
73565;PMS5003;61846;52.970;-3.168;2023-07-08T08:37:58;11;8;
73565;PMS5003;61846;52.970;-3.168;2023-07-08T08:40:23;16;11;
73565;PMS5003;61846;52.970;-3.168;2023-07-08T08:42:51;7;7;
73565;PMS5003;61846;52.970;-3.168;2023-07-08T08:45:15;11;11;
73565;PMS5003;61846;52.970;-3.168;2023-07-08T08:47:39;12;10;
73565;PMS5003;61846;52.970;-3.168;2023-07-08T08:50:09;9;9;
73565;PMS5003;61846;52.970;-3.168;2023-07-08T08:52:30;14;14;
73565;PMS5003;61846;52.970;-3.168;2023-07-08T08:54:55;13;10;
73565;PMS5003;61846;52.970;-3.168;2023-07-08T08:57:25;9;9;
73565;PMS5003;61846;52.970;-3.168;2023-07-08T08:59:48;11;9;
73565;PMS5003;61846;52.970;-3.168;2023-07-08T09:02:18;11;10;
73565;PMS5003;61846;52.970;-3.168;2023-07-08T09:04:38;10;10;
73565;PMS5003;61846;52.970;-3.168;2023-07-08T09:07:05;11;9;
73565;PMS5003;61846;52.970;-3.168;2023-07-08T09:09:38;15;9;
73565;PMS5003;61846;52.970;-3.168;2023-07-08T09:11:56;12;10;
73565;PMS5003;61846;52.970;-3.168;2023-07-08T09:14:22;10;10;
73565;PMS5003;61846;52.970;-3.168;2023-07-08T09:16:48;11;10;
73565;PMS5003;61846;52.970;-3.168;2023-07-08T09:19:11;10;9;
73565;PMS5003;61846;52.970;-3.168;2023-07-08T09:21:37;6;6;
73565;PMS5003;61846;52.970;-3.168;2023-07-08T09:24:02;8;8;
73565;PMS5003;61846;52.970;-3.168;2023-07-08T09:26:27;9;9;
73565;PMS5003;61846;52.970;-3.168;2023-07-08T09:28:52;9;9;
73565;PMS5003;61846;52.970;-3.168;2023-07-08T09:31:20;10;10;
73565;PMS5003;61846;52.970;-3.168;2023-07-08T09:33:43;8;8;
73565;PMS5003;61846;52.970;-3.168;2023-07-08T09:38:33;6;6;
73565;PMS5003;61846;52.970;-3.168;2023-07-08T09:40:59;3;3;
73565;PMS5003;61846;52.970;-3.168;2023-07-08T09:43:25;4;4;
73565;PMS5003;61846;52.970;-3.168;2023-07-08T09:45:49;4;4;
73565;PMS5003;61846;52.970;-3.168;2023-07-08T09:48:16;7;5;
73565;PMS5003;61846;52.970;-3.168;2023-07-08T09:50:42;7;7;
73565;PMS5003;61846;52.970;-3.168;2023-07-08T09:55:30;6;6;
73565;PMS5003;61846;52.970;-3.168;2023-07-08T09:57:56;7;5;
73565;PMS5003;61846;52.970;-3.168;2023-07-08T10:00:26;4;4;
73565;PMS5003;61846;52.970;-3.168;2023-07-08T10:02:49;3;3;
73565;PMS5003;61846;52.970;-3.168;2023-07-08T10:05:15;6;5;
73565;PMS5003;61846;52.970;-3.168;2023-07-08T10:07:38;16;11;
73565;PMS5003;61846;52.970;-3.168;2023-07-08T10:10:06;5;3;
73565;PMS5003;61846;52.970;-3.168;2023-07-08T10:12:28;9;7;
73565;PMS5003;61846;52.970;-3.168;2023-07-08T10:14:54;8;7;
73565;PMS5003;61846;52.970;-3.168;2023-07-08T10:17:19;4;4;
73565;PMS5003;61846;52.970;-3.168;2023-07-08T10:19:44;5;4;
73565;PMS5003;61846;52.970;-3.168;2023-07-08T10:22:18;6;5;
73565;PMS5003;61846;52.970;-3.168;2023-07-08T10:24:39;7;6;
73565;PMS5003;61846;52.970;-3.168;2023-07-08T10:27:04;5;4;
73565;PMS5003;61846;52.970;-3.168;2023-07-08T10:29:28;7;5;
73565;PMS5003;61846;52.970;-3.168;2023-07-08T10:31:51;2;2;
73565;PMS5003;61846;52.970;-3.168;2023-07-08T10:34:20;6;6;
73565;PMS5003;61846;52.970;-3.168;2023-07-08T10:36:43;5;3;
73565;PMS5003;61846;52.970;-3.168;2023-07-08T10:39:17;5;5;
73565;PMS5003;61846;52.970;-3.168;2023-07-08T10:41:35;6;4;
73565;PMS5003;61846;52.970;-3.168;2023-07-08T10:44:01;4;2;
73565;PMS5003;61846;52.970;-3.168;2023-07-08T10:46:24;5;4;
73565;PMS5003;61846;52.970;-3.168;2023-07-08T10:48:56;3;3;
73565;PMS5003;61846;52.970;-3.168;2023-07-08T10:51:16;4;3;
73565;PMS5003;61846;52.970;-3.168;2023-07-08T10:53:48;2;2;
73565;PMS5003;61846;52.970;-3.168;2023-07-08T10:56:07;5;4;
73565;PMS5003;61846;52.970;-3.168;2023-07-08T10:58:36;3;3;
73565;PMS5003;61846;52.970;-3.168;2023-07-08T11:00:58;4;4;
73565;PMS5003;61846;52.970;-3.168;2023-07-08T11:05:46;6;3;
73565;PMS5003;61846;52.970;-3.168;2023-07-08T11:08:12;4;4;
73565;PMS5003;61846;52.970;-3.168;2023-07-08T11:10:38;3;3;
73565;PMS5003;61846;52.970;-3.168;2023-07-08T11:13:02;5;5;
73565;PMS5003;61846;52.970;-3.168;2023-07-08T11:15:28;5;3;
73565;PMS5003;61846;52.970;-3.168;2023-07-08T11:18:01;7;3;
73565;PMS5003;61846;52.970;-3.168;2023-07-08T11:20:19;3;3;
73565;PMS5003;61846;52.970;-3.168;2023-07-08T11:22:45;4;4;
73565;PMS5003;61846;52.970;-3.168;2023-07-08T11:25:09;4;3;
73565;PMS5003;61846;52.970;-3.168;2023-07-08T11:27:35;4;4;
73565;PMS5003;61846;52.970;-3.168;2023-07-08T11:29:59;5;3;
73565;PMS5003;61846;52.970;-3.168;2023-07-08T11:32:25;5;4;
73565;PMS5003;61846;52.970;-3.168;2023-07-08T11:34:50;4;4;
73565;PMS5003;61846;52.970;-3.168;2023-07-08T11:37:15;4;4;
73565;PMS5003;61846;52.970;-3.168;2023-07-08T11:39:41;3;3;
73565;PMS5003;61846;52.970;-3.168;2023-07-08T11:42:13;2;2;
73565;PMS5003;61846;52.970;-3.168;2023-07-08T11:44:31;1;1;
73565;PMS5003;61846;52.970;-3.168;2023-07-08T11:46:56;3;3;
73565;PMS5003;61846;52.970;-3.168;2023-07-08T11:49:21;2;2;
73565;PMS5003;61846;52.970;-3.168;2023-07-08T11:51:46;4;4;
73565;PMS5003;61846;52.970;-3.168;2023-07-08T11:54:12;2;2;
73565;PMS5003;61846;52.970;-3.168;2023-07-08T11:59:09;3;2;
73565;PMS5003;61846;52.970;-3.168;2023-07-08T12:01:28;5;3;
73565;PMS5003;61846;52.970;-3.168;2023-07-08T12:03:54;6;4;
73565;PMS5003;61846;52.970;-3.168;2023-07-08T12:08:43;3;2;
73565;PMS5003;61846;52.970;-3.168;2023-07-08T12:11:08;2;2;
73565;PMS5003;61846;52.970;-3.168;2023-07-08T12:13:33;4;2;
73565;PMS5003;61846;52.970;-3.168;2023-07-08T12:15:58;5;4;
73565;PMS5003;61846;52.970;-3.168;2023-07-08T12:18:24;2;2;
73565;PMS5003;61846;52.970;-3.168;2023-07-08T12:20:50;2;2;
73565;PMS5003;61846;52.970;-3.168;2023-07-08T12:23:15;4;4;
73565;PMS5003;61846;52.970;-3.168;2023-07-08T12:25:39;3;2;
73565;PMS5003;61846;52.970;-3.168;2023-07-08T12:28:04;2;2;
73565;PMS5003;61846;52.970;-3.168;2023-07-08T12:30:30;3;3;
73565;PMS5003;61846;52.970;-3.168;2023-07-08T12:32:55;1;1;
73565;PMS5003;61846;52.970;-3.168;2023-07-08T12:35:22;3;3;
73565;PMS5003;61846;52.970;-3.168;2023-07-08T12:37:45;10;6;
73565;PMS5003;61846;52.970;-3.168;2023-07-08T12:40:11;4;4;
73565;PMS5003;61846;52.970;-3.168;2023-07-08T12:42:36;6;5;
73565;PMS5003;61846;52.970;-3.168;2023-07-08T12:45:01;3;2;
73565;PMS5003;61846;52.970;-3.168;2023-07-08T12:47:27;15;7;
73565;PMS5003;61846;52.970;-3.168;2023-07-08T12:49:52;6;6;
73565;PMS5003;61846;52.970;-3.168;2023-07-08T12:52:20;8;6;
73565;PMS5003;61846;52.970;-3.168;2023-07-08T12:54:43;7;5;
73565;PMS5003;61846;52.970;-3.168;2023-07-08T12:57:08;5;3;
73565;PMS5003;61846;52.970;-3.168;2023-07-08T12:59:34;6;5;
73565;PMS5003;61846;52.970;-3.168;2023-07-08T13:01:59;7;4;
73565;PMS5003;61846;52.970;-3.168;2023-07-08T13:04:24;9;5;
73565;PMS5003;61846;52.970;-3.168;2023-07-08T13:06:49;5;4;
73565;PMS5003;61846;52.970;-3.168;2023-07-08T13:09:21;6;6;
73565;PMS5003;61846;52.970;-3.168;2023-07-08T13:11:40;8;7;
73565;PMS5003;61846;52.970;-3.168;2023-07-08T13:14:05;6;4;
73565;PMS5003;61846;52.970;-3.168;2023-07-08T13:16:31;4;4;
73565;PMS5003;61846;52.970;-3.168;2023-07-08T13:18:56;3;3;
73565;PMS5003;61846;52.970;-3.168;2023-07-08T13:21:21;10;4;
73565;PMS5003;61846;52.970;-3.168;2023-07-08T13:23:47;4;4;
73565;PMS5003;61846;52.970;-3.168;2023-07-08T13:26:13;3;3;
73565;PMS5003;61846;52.970;-3.168;2023-07-08T13:28:38;13;9;
73565;PMS5003;61846;52.970;-3.168;2023-07-08T13:31:12;9;6;
73565;PMS5003;61846;52.970;-3.168;2023-07-08T13:33:29;6;5;
73565;PMS5003;61846;52.970;-3.168;2023-07-08T13:35:54;7;6;
73565;PMS5003;61846;52.970;-3.168;2023-07-08T13:38:19;9;4;
73565;PMS5003;61846;52.970;-3.168;2023-07-08T13:40:45;9;6;
73565;PMS5003;61846;52.970;-3.168;2023-07-08T13:43:09;6;5;
73565;PMS5003;61846;52.970;-3.168;2023-07-08T13:45:35;12;9;
73565;PMS5003;61846;52.970;-3.168;2023-07-08T13:48:02;7;6;
73565;PMS5003;61846;52.970;-3.168;2023-07-08T13:50:27;5;5;
73565;PMS5003;61846;52.970;-3.168;2023-07-08T13:52:53;5;5;
73565;PMS5003;61846;52.970;-3.168;2023-07-08T13:55:17;11;6;
73565;PMS5003;61846;52.970;-3.168;2023-07-08T13:57:42;5;5;
73565;PMS5003;61846;52.970;-3.168;2023-07-08T14:00:08;7;4;
73565;PMS5003;61846;52.970;-3.168;2023-07-08T14:02:33;9;7;
73565;PMS5003;61846;52.970;-3.168;2023-07-08T14:04:58;5;5;
73565;PMS5003;61846;52.970;-3.168;2023-07-08T14:07:24;8;8;
73565;PMS5003;61846;52.970;-3.168;2023-07-08T14:09:49;10;7;
73565;PMS5003;61846;52.970;-3.168;2023-07-08T14:12:14;9;6;
73565;PMS5003;61846;52.970;-3.168;2023-07-08T14:14:39;9;7;
73565;PMS5003;61846;52.970;-3.168;2023-07-08T14:17:05;10;7;
73565;PMS5003;61846;52.970;-3.168;2023-07-08T14:19:30;8;6;
73565;PMS5003;61846;52.970;-3.168;2023-07-08T14:21:56;6;5;
73565;PMS5003;61846;52.970;-3.168;2023-07-08T14:24:20;6;5;
73565;PMS5003;61846;52.970;-3.168;2023-07-08T14:26:46;9;6;
73565;PMS5003;61846;52.970;-3.168;2023-07-08T14:29:11;5;3;
73565;PMS5003;61846;52.970;-3.168;2023-07-08T14:31:37;9;5;
73565;PMS5003;61846;52.970;-3.168;2023-07-08T14:34:03;2;2;
73565;PMS5003;61846;52.970;-3.168;2023-07-08T14:36:27;2;2;
73565;PMS5003;61846;52.970;-3.168;2023-07-08T14:38:53;4;2;
73565;PMS5003;61846;52.970;-3.168;2023-07-08T14:41:18;2;1;
73565;PMS5003;61846;52.970;-3.168;2023-07-08T14:43:43;3;2;
73565;PMS5003;61846;52.970;-3.168;2023-07-08T14:46:09;2;2;
73565;PMS5003;61846;52.970;-3.168;2023-07-08T14:48:34;4;2;
73565;PMS5003;61846;52.970;-3.168;2023-07-08T14:50:59;2;2;
73565;PMS5003;61846;52.970;-3.168;2023-07-08T14:53:25;3;1;
73565;PMS5003;61846;52.970;-3.168;2023-07-08T14:55:50;3;3;
73565;PMS5003;61846;52.970;-3.168;2023-07-08T14:58:17;2;1;
73565;PMS5003;61846;52.970;-3.168;2023-07-08T15:00:41;2;1;
73565;PMS5003;61846;52.970;-3.168;2023-07-08T15:03:06;2;2;
73565;PMS5003;61846;52.970;-3.168;2023-07-08T15:05:32;2;2;
73565;PMS5003;61846;52.970;-3.168;2023-07-08T15:07:57;3;2;
73565;PMS5003;61846;52.970;-3.168;2023-07-08T15:10:23;2;2;
73565;PMS5003;61846;52.970;-3.168;2023-07-08T15:12:48;3;3;
73565;PMS5003;61846;52.970;-3.168;2023-07-08T15:15:14;1;1;
73565;PMS5003;61846;52.970;-3.168;2023-07-08T15:17:38;1;1;
73565;PMS5003;61846;52.970;-3.168;2023-07-08T15:20:07;2;2;
73565;PMS5003;61846;52.970;-3.168;2023-07-08T15:22:29;4;4;
73565;PMS5003;61846;52.970;-3.168;2023-07-08T15:24:54;3;3;
73565;PMS5003;61846;52.970;-3.168;2023-07-08T15:27:20;3;3;
73565;PMS5003;61846;52.970;-3.168;2023-07-08T15:29:45;3;2;
73565;PMS5003;61846;52.970;-3.168;2023-07-08T15:32:11;3;3;
73565;PMS5003;61846;52.970;-3.168;2023-07-08T15:34:36;3;1;
73565;PMS5003;61846;52.970;-3.168;2023-07-08T15:37:01;3;3;
73565;PMS5003;61846;52.970;-3.168;2023-07-08T15:39:26;3;3;
73565;PMS5003;61846;52.970;-3.168;2023-07-08T15:41:51;4;2;
73565;PMS5003;61846;52.970;-3.168;2023-07-08T15:44:17;3;3;
73565;PMS5003;61846;52.970;-3.168;2023-07-08T15:46:43;2;1;
73565;PMS5003;61846;52.970;-3.168;2023-07-08T15:49:12;3;3;
73565;PMS5003;61846;52.970;-3.168;2023-07-08T15:51:33;2;2;
73565;PMS5003;61846;52.970;-3.168;2023-07-08T15:53:58;7;4;
73565;PMS5003;61846;52.970;-3.168;2023-07-08T15:56:23;5;3;
73565;PMS5003;61846;52.970;-3.168;2023-07-08T15:58:49;7;5;
73565;PMS5003;61846;52.970;-3.168;2023-07-08T16:01:15;8;5;
73565;PMS5003;61846;52.970;-3.168;2023-07-08T16:03:39;5;5;
73565;PMS5003;61846;52.970;-3.168;2023-07-08T16:06:05;7;4;
73565;PMS5003;61846;52.970;-3.168;2023-07-08T16:08:30;5;4;
73565;PMS5003;61846;52.970;-3.168;2023-07-08T16:10:56;3;3;
73565;PMS5003;61846;52.970;-3.168;2023-07-08T16:13:23;2;2;
73565;PMS5003;61846;52.970;-3.168;2023-07-08T16:15:46;4;3;
73565;PMS5003;61846;52.970;-3.168;2023-07-08T16:18:11;2;2;